createdAt,value
2018-02-18T00:01:59.994Z,-0.68
2018-02-18T00:04:28.021Z,-0.55
2018-02-18T00:06:57.245Z,-0.52
2018-02-18T00:09:26.457Z,-0.51
2018-02-18T00:11:55.592Z,-0.57
2018-02-18T00:14:34.802Z,-0.70
2018-02-18T00:17:04.215Z,-0.72
2018-02-18T00:19:34.537Z,-0.66
2018-02-18T00:22:03.006Z,-0.66
2018-02-18T00:24:31.738Z,-0.87
2018-02-18T00:27:01.039Z,-0.70
2018-02-18T00:29:29.966Z,-0.77
2018-02-18T00:31:59.013Z,-0.96
2018-02-18T00:34:26.743Z,-0.84
2018-02-18T00:36:56.425Z,-0.87
2018-02-18T00:39:24.548Z,-0.95
2018-02-18T00:41:52.954Z,-1.08
2018-02-18T00:44:22.538Z,-1.05
2018-02-18T00:46:51.241Z,-1.20
2018-02-18T00:49:20.983Z,-1.17
2018-02-18T00:51:49.059Z,-1.01
2018-02-18T00:54:17.342Z,-0.90
2018-02-18T00:56:45.041Z,-1.01
2018-02-18T00:59:13.144Z,-1.08
2018-02-18T01:01:40.697Z,-1.05
2018-02-18T01:04:09.248Z,-1.06
2018-02-18T01:06:36.800Z,-1.05
2018-02-18T01:09:05.206Z,-1.11
2018-02-18T01:11:32.784Z,-1.20
2018-02-18T01:14:00.332Z,-1.03
2018-02-18T01:16:27.908Z,-1.06
2018-02-18T01:18:55.462Z,-1.04
2018-02-18T01:21:23.025Z,-1.06
2018-02-18T01:23:51.807Z,-1.08
2018-02-18T01:26:19.677Z,-1.09
2018-02-18T01:28:47.327Z,-1.02
2018-02-18T01:31:14.899Z,-1.09
2018-02-18T01:33:42.445Z,-1.01
2018-02-18T01:36:10.005Z,-1.16
2018-02-18T01:38:37.583Z,-1.14
2018-02-18T01:41:05.103Z,-1.19
2018-02-18T01:43:32.685Z,-1.26
2018-02-18T01:46:00.215Z,-1.27
2018-02-18T01:48:27.788Z,-1.31
2018-02-18T01:50:55.320Z,-1.33
2018-02-18T01:53:22.892Z,-1.36
2018-02-18T01:55:50.446Z,-1.29
2018-02-18T01:58:18.027Z,-1.29
2018-02-18T02:00:45.600Z,-1.35
2018-02-18T02:03:13.223Z,-1.42
2018-02-18T02:05:40.784Z,-1.42
2018-02-18T02:08:08.331Z,-1.37
2018-02-18T02:10:35.910Z,-1.48
2018-02-18T02:13:03.438Z,-1.45
2018-02-18T02:15:31.064Z,-1.46
2018-02-18T02:17:58.615Z,-1.44
2018-02-18T02:20:26.195Z,-1.46
2018-02-18T02:22:53.720Z,-1.49
2018-02-18T02:25:21.269Z,-1.43
2018-02-18T02:27:48.852Z,-1.55
2018-02-18T02:30:16.422Z,-1.54
2018-02-18T02:32:44.007Z,-1.66
2018-02-18T02:35:11.535Z,-1.60
2018-02-18T02:37:39.106Z,-1.62
2018-02-18T02:40:06.637Z,-1.60
2018-02-18T02:42:34.208Z,-1.55
2018-02-18T02:45:01.755Z,-1.62
2018-02-18T02:47:30.112Z,-1.56
2018-02-18T02:49:57.672Z,-1.68
2018-02-18T02:52:25.197Z,-1.72
2018-02-18T02:54:52.775Z,-1.61
2018-02-18T02:57:20.301Z,-1.46
2018-02-18T02:59:47.860Z,-1.58
2018-02-18T03:02:15.410Z,-1.55
2018-02-18T03:04:42.961Z,-1.44
2018-02-18T03:07:10.518Z,-1.55
2018-02-18T03:09:38.181Z,-1.57
2018-02-18T03:12:05.743Z,-1.58
2018-02-18T03:14:33.311Z,-1.52
2018-02-18T03:17:00.977Z,-1.72
2018-02-18T03:19:28.627Z,-1.70
2018-02-18T03:21:56.206Z,-1.62
2018-02-18T03:24:23.728Z,-1.63
2018-02-18T03:26:51.279Z,-1.70
2018-02-18T03:29:18.811Z,-1.68
2018-02-18T03:31:46.436Z,-1.78
2018-02-18T03:34:13.958Z,-1.83
2018-02-18T03:36:41.487Z,-1.86
2018-02-18T03:39:09.098Z,-2.01
2018-02-18T03:41:36.640Z,-1.83
2018-02-18T03:44:04.217Z,-1.81
2018-02-18T03:46:31.878Z,-1.74
2018-02-18T03:48:59.452Z,-1.76
2018-02-18T03:51:27.102Z,-1.76
2018-02-18T03:53:54.761Z,-1.83
2018-02-18T03:56:22.311Z,-1.95
2018-02-18T03:58:49.883Z,-1.85
2018-02-18T04:01:17.409Z,-1.81
2018-02-18T04:03:45.007Z,-1.72
2018-02-18T04:06:12.566Z,-1.79
2018-02-18T04:08:40.096Z,-1.89
2018-02-18T04:11:07.668Z,-1.97
2018-02-18T04:13:35.236Z,-2.00
2018-02-18T04:16:02.799Z,-2.00
2018-02-18T04:18:30.370Z,-2.00
2018-02-18T04:20:58.028Z,-2.06
2018-02-18T04:23:25.581Z,-2.11
2018-02-18T04:25:53.134Z,-2.19
2018-02-18T04:28:20.711Z,-2.06
2018-02-18T04:30:48.236Z,-2.17
2018-02-18T04:33:15.815Z,-2.18
2018-02-18T04:35:43.372Z,-2.22
2018-02-18T04:38:10.947Z,-2.14
2018-02-18T04:40:38.494Z,-2.33
2018-02-18T04:43:06.076Z,-2.44
2018-02-18T04:45:33.679Z,-2.46
2018-02-18T04:48:01.203Z,-2.18
2018-02-18T04:50:28.832Z,-2.17
2018-02-18T04:52:56.358Z,-2.38
2018-02-18T04:55:23.906Z,-2.22
2018-02-18T04:57:51.463Z,-2.21
2018-02-18T05:00:19.072Z,-2.19
2018-02-18T05:02:46.628Z,-2.24
2018-02-18T05:05:14.274Z,-2.23
2018-02-18T05:07:41.851Z,-2.24
2018-02-18T05:10:09.418Z,-2.30
2018-02-18T05:12:37.076Z,-2.25
2018-02-18T05:15:04.732Z,-2.28
2018-02-18T05:17:32.279Z,-2.25
2018-02-18T05:19:59.851Z,-2.41
2018-02-18T05:22:27.412Z,-2.33
2018-02-18T05:24:54.938Z,-2.37
2018-02-18T05:27:22.538Z,-2.36
2018-02-18T05:29:50.058Z,-2.35
2018-02-18T05:32:17.618Z,-2.47
2018-02-18T05:34:45.144Z,-2.55
2018-02-18T05:37:12.766Z,-2.51
2018-02-18T05:39:40.325Z,-2.52
2018-02-18T05:42:07.851Z,-2.44
2018-02-18T05:44:35.455Z,-2.49
2018-02-18T05:47:03.926Z,-2.49
2018-02-18T05:49:31.589Z,-2.55
2018-02-18T05:51:59.156Z,-2.46
2018-02-18T05:54:26.738Z,-2.58
2018-02-18T05:56:54.267Z,-2.58
2018-02-18T05:59:21.823Z,-2.51
2018-02-18T06:01:49.372Z,-2.47
2018-02-18T06:04:17.047Z,-2.57
2018-02-18T06:06:44.575Z,-2.53
2018-02-18T06:09:12.131Z,-2.65
2018-02-18T06:11:39.738Z,-2.61
2018-02-18T06:14:07.280Z,-2.55
2018-02-18T06:16:34.842Z,-2.63
2018-02-18T06:19:02.387Z,-2.73
2018-02-18T06:21:29.983Z,-2.63
2018-02-18T06:23:57.506Z,-2.68
2018-02-18T06:26:25.099Z,-2.70
2018-02-18T06:28:52.647Z,-2.67
2018-02-18T06:31:20.304Z,-2.94
2018-02-18T06:33:47.858Z,-2.83
2018-02-18T06:36:15.523Z,-3.01
2018-02-18T06:38:43.053Z,-2.99
2018-02-18T06:41:10.615Z,-2.76
2018-02-18T06:43:38.211Z,-2.90
2018-02-18T06:46:05.866Z,-2.81
2018-02-18T06:48:34.187Z,-2.89
2018-02-18T06:51:01.746Z,-2.70
2018-02-18T06:53:29.317Z,-2.71
2018-02-18T06:55:56.904Z,-2.65
2018-02-18T06:58:24.422Z,-2.72
2018-02-18T07:00:51.973Z,-2.75
2018-02-18T07:03:19.589Z,-2.99
2018-02-18T07:05:47.231Z,-2.88
2018-02-18T07:08:14.832Z,-2.78
2018-02-18T07:10:42.483Z,-2.93
2018-02-18T07:13:10.012Z,-2.78
2018-02-18T07:15:37.587Z,-2.53
2018-02-18T07:18:05.158Z,-2.57
2018-02-18T07:20:32.820Z,-2.53
2018-02-18T07:23:00.390Z,-2.35
2018-02-18T07:25:27.945Z,-2.37
2018-02-18T07:27:55.528Z,-2.27
2018-02-18T07:30:24.000Z,-2.33
2018-02-18T07:32:51.552Z,-2.34
2018-02-18T07:35:20.355Z,-2.21
2018-02-18T07:40:26.307Z,-2.12
2018-02-18T07:42:55.640Z,-2.07
2018-02-18T07:45:23.575Z,-2.03
2018-02-18T07:47:51.168Z,-2.08
2018-02-18T07:50:19.413Z,-2.08
2018-02-18T07:52:49.972Z,-1.99
2018-02-18T07:55:20.920Z,-1.92
2018-02-18T07:57:51.401Z,-1.97
2018-02-18T08:00:21.174Z,-2.14
2018-02-18T08:02:50.310Z,-1.84
2018-02-18T08:05:18.790Z,-1.70
2018-02-18T08:07:47.130Z,-1.65
2018-02-18T08:10:14.689Z,-1.72
2018-02-18T08:12:42.267Z,-1.58
2018-02-18T08:15:09.858Z,-1.53
2018-02-18T08:17:39.002Z,-1.61
2018-02-18T08:20:07.608Z,-1.45
2018-02-18T08:22:38.143Z,-1.53
2018-02-18T08:25:08.600Z,-1.57
2018-02-18T08:27:37.011Z,-1.76
2018-02-18T08:30:06.066Z,-1.40
2018-02-18T08:32:34.333Z,-1.22
2018-02-18T08:35:03.812Z,-1.01
2018-02-18T08:37:31.491Z,-1.01
2018-02-18T08:39:59.015Z,-0.92
2018-02-18T08:42:26.571Z,-0.90
2018-02-18T08:44:54.120Z,-0.88
2018-02-18T08:47:21.689Z,-0.87
2018-02-18T08:49:49.224Z,-0.94
2018-02-18T08:52:16.849Z,-0.78
2018-02-18T08:54:44.405Z,-0.71
2018-02-18T08:57:12.082Z,-0.55
2018-02-18T08:59:39.758Z,-0.59
2018-02-18T09:02:07.288Z,-0.51
2018-02-18T09:04:34.856Z,-0.50
2018-02-18T09:07:02.392Z,-0.31
2018-02-18T09:09:30.593Z,-0.14
2018-02-18T09:11:58.119Z,-0.14
2018-02-18T09:14:26.264Z,-0.09
2018-02-18T09:16:58.848Z,-0.07
2018-02-18T09:19:26.627Z,0.09
2018-02-18T09:21:54.327Z,0.16
2018-02-18T09:24:22.606Z,0.15
2018-02-18T09:26:52.305Z,0.33
2018-02-18T09:29:22.975Z,0.25
2018-02-18T09:31:53.559Z,0.46
2018-02-18T09:34:22.367Z,0.51
2018-02-18T09:36:51.195Z,0.38
2018-02-18T09:39:22.526Z,0.59
2018-02-18T09:41:50.320Z,0.73
2018-02-18T09:44:18.126Z,0.69
2018-02-18T09:46:45.693Z,0.68
2018-02-18T09:49:13.274Z,0.82
2018-02-18T09:51:40.894Z,0.96
2018-02-18T09:54:08.507Z,1.02
2018-02-18T09:56:38.153Z,1.07
2018-02-18T09:59:05.715Z,0.86
2018-02-18T10:01:33.810Z,1.12
2018-02-18T10:04:01.366Z,1.17
2018-02-18T10:06:28.894Z,1.34
2018-02-18T10:08:56.447Z,1.05
2018-02-18T10:11:24.000Z,1.04
2018-02-18T10:13:51.575Z,1.43
2018-02-18T10:16:19.100Z,1.54
2018-02-18T10:18:46.631Z,1.59
2018-02-18T10:21:14.285Z,1.85
2018-02-18T10:23:41.860Z,1.91
2018-02-18T10:26:09.413Z,1.89
2018-02-18T10:28:37.168Z,1.93
2018-02-18T10:31:04.749Z,1.87
2018-02-18T10:33:32.295Z,2.01
2018-02-18T10:36:01.963Z,1.87
2018-02-18T10:38:30.195Z,2.12
2018-02-18T10:40:57.904Z,2.20
2018-02-18T10:43:25.697Z,2.43
2018-02-18T10:45:53.235Z,2.52
2018-02-18T10:48:20.783Z,2.68
2018-02-18T10:50:48.334Z,2.75
2018-02-18T10:53:20.032Z,2.80
2018-02-18T10:55:52.727Z,2.87
2018-02-18T10:58:24.495Z,3.06
2018-02-18T11:00:53.551Z,3.13
2018-02-18T11:03:21.146Z,3.27
2018-02-18T11:05:48.676Z,3.70
2018-02-18T11:08:17.225Z,3.76
2018-02-18T11:10:45.048Z,3.86
2018-02-18T11:13:12.751Z,3.87
2018-02-18T11:15:40.335Z,3.89
2018-02-18T11:18:08.428Z,3.80
2018-02-18T11:20:36.015Z,3.85
2018-02-18T11:23:03.559Z,3.81
2018-02-18T11:25:31.415Z,3.83
2018-02-18T11:27:59.020Z,3.53
2018-02-18T11:30:26.720Z,3.90
2018-02-18T11:32:58.797Z,3.60
2018-02-18T11:35:26.440Z,3.41
2018-02-18T11:37:54.533Z,3.68
2018-02-18T11:40:22.084Z,3.75
2018-02-18T11:42:50.862Z,3.60
2018-02-18T11:45:18.651Z,3.58
2018-02-18T11:47:46.250Z,3.75
2018-02-18T11:50:13.838Z,3.76
2018-02-18T11:52:41.367Z,3.27
2018-02-18T11:55:08.893Z,3.63
2018-02-18T11:57:36.446Z,3.80
2018-02-18T12:00:04.027Z,3.80
2018-02-18T12:02:31.553Z,3.82
2018-02-18T12:04:59.107Z,3.88
2018-02-18T12:07:26.631Z,4.09
2018-02-18T12:09:54.180Z,4.14
2018-02-18T12:12:21.713Z,4.01
2018-02-18T12:14:49.261Z,4.03
2018-02-18T12:17:16.791Z,4.07
2018-02-18T12:19:44.515Z,4.29
2018-02-18T12:22:15.718Z,4.57
2018-02-18T12:24:46.314Z,4.61
2018-02-18T12:27:16.797Z,4.30
2018-02-18T12:29:49.674Z,4.24
2018-02-18T12:32:19.358Z,4.31
2018-02-18T12:34:47.848Z,4.63
2018-02-18T12:37:18.237Z,4.48
2018-02-18T12:39:48.228Z,4.32
2018-02-18T12:42:15.954Z,4.47
2018-02-18T12:44:43.488Z,4.70
2018-02-18T12:47:11.040Z,4.97
2018-02-18T12:49:38.646Z,4.91
2018-02-18T12:52:06.197Z,5.09
2018-02-18T12:54:33.748Z,5.30
2018-02-18T12:57:01.315Z,5.28
2018-02-18T12:59:31.652Z,5.14
2018-02-18T13:02:00.421Z,5.16
2018-02-18T13:04:29.666Z,5.18
2018-02-18T13:06:57.377Z,5.41
2018-02-18T13:09:26.460Z,5.46
2018-02-18T13:11:54.990Z,5.52
2018-02-18T13:14:24.158Z,5.48
2018-02-18T13:16:52.433Z,5.47
2018-02-18T13:19:20.148Z,5.57
2018-02-18T13:21:50.167Z,5.49
2018-02-18T13:24:20.693Z,5.20
2018-02-18T13:26:48.801Z,5.19
2018-02-18T13:29:16.385Z,5.29
2018-02-18T13:31:44.982Z,5.37
2018-02-18T13:34:12.564Z,5.53
2018-02-18T13:36:40.143Z,5.50
2018-02-18T13:39:08.296Z,5.17
2018-02-18T13:41:36.205Z,5.73
2018-02-18T13:44:03.743Z,5.62
2018-02-18T13:46:33.539Z,5.58
2018-02-18T13:49:03.525Z,5.65
2018-02-18T13:51:32.403Z,5.81
2018-02-18T13:54:02.898Z,5.76
2018-02-18T13:56:33.650Z,5.81
2018-02-18T13:59:01.387Z,5.71
2018-02-18T14:01:31.410Z,5.81
2018-02-18T14:03:59.671Z,5.83
2018-02-18T14:06:27.743Z,5.70
2018-02-18T14:08:57.110Z,5.65
2018-02-18T14:11:25.719Z,5.86
2018-02-18T14:13:53.689Z,5.80
2018-02-18T14:16:24.622Z,6.04
2018-02-18T14:18:52.369Z,6.04
2018-02-18T14:21:23.702Z,6.19
2018-02-18T14:23:57.707Z,6.12
2018-02-18T14:26:28.293Z,5.83
2018-02-18T14:28:57.634Z,6.01
2018-02-18T14:31:28.685Z,6.21
2018-02-18T14:34:00.116Z,5.86
2018-02-18T14:36:28.547Z,6.14
2018-02-18T14:38:59.098Z,5.92
2018-02-18T14:41:38.623Z,6.26
2018-02-18T14:44:17.998Z,6.46
2018-02-18T14:46:57.628Z,6.17
2018-02-18T14:49:36.953Z,6.31
2018-02-18T14:52:16.417Z,6.25
2018-02-18T14:57:44.786Z,6.13
2018-02-18T15:00:12.375Z,5.77
2018-02-18T15:02:39.916Z,5.84
2018-02-18T15:05:07.468Z,6.03
2018-02-18T15:07:35.024Z,5.66
2018-02-18T15:10:02.571Z,5.85
2018-02-18T15:12:30.143Z,6.19
2018-02-18T15:14:58.446Z,5.84
2018-02-18T15:17:26.005Z,6.28
2018-02-18T15:19:53.576Z,6.09
2018-02-18T15:22:21.235Z,6.05
2018-02-18T15:24:48.793Z,5.95
2018-02-18T15:27:16.366Z,5.89
2018-02-18T15:29:43.894Z,5.90
2018-02-18T15:32:11.419Z,5.53
2018-02-18T15:34:39.210Z,5.54
2018-02-18T15:37:06.746Z,4.94
2018-02-18T15:39:34.300Z,4.93
2018-02-18T15:42:01.870Z,4.88
2018-02-18T15:44:29.672Z,4.88
2018-02-18T15:46:57.220Z,5.13
2018-02-18T15:49:24.811Z,5.09
2018-02-18T15:51:52.365Z,5.08
2018-02-18T15:54:19.916Z,5.02
2018-02-18T15:56:47.467Z,4.96
2018-02-18T15:59:15.031Z,5.25
2018-02-18T16:01:43.169Z,5.14
2018-02-18T16:04:10.699Z,5.26
2018-02-18T16:06:38.273Z,5.51
2018-02-18T16:09:05.879Z,5.06
2018-02-18T16:11:33.455Z,5.03
2018-02-18T16:14:00.980Z,4.87
2018-02-18T16:16:28.507Z,4.93
2018-02-18T16:18:56.063Z,5.02
2018-02-18T16:21:23.589Z,4.72
2018-02-18T16:23:51.138Z,4.68
2018-02-18T16:26:18.659Z,4.59
2018-02-18T16:28:46.245Z,4.59
2018-02-18T16:31:13.771Z,4.56
2018-02-18T16:33:41.322Z,4.49
2018-02-18T16:36:08.851Z,4.60
2018-02-18T16:38:36.431Z,4.37
2018-02-18T16:41:03.951Z,4.53
2018-02-18T16:43:31.483Z,4.53
2018-02-18T16:45:59.034Z,4.46
2018-02-18T16:48:26.811Z,4.23
2018-02-18T16:50:54.357Z,4.18
2018-02-18T16:53:21.891Z,4.05
2018-02-18T16:55:49.603Z,4.08
2018-02-18T16:58:17.377Z,3.98
2018-02-18T17:00:45.033Z,3.92
2018-02-18T17:03:12.899Z,3.92
2018-02-18T17:05:40.455Z,3.81
2018-02-18T17:08:08.307Z,3.76
2018-02-18T17:10:36.048Z,3.75
2018-02-18T17:13:03.615Z,3.54
2018-02-18T17:15:31.184Z,3.45
2018-02-18T17:17:58.767Z,3.26
2018-02-18T17:20:26.318Z,3.13
2018-02-18T17:22:53.847Z,2.98
2018-02-18T17:25:21.415Z,3.00
2018-02-18T17:27:49.208Z,2.87
2018-02-18T17:30:17.600Z,2.77
2018-02-18T17:32:45.138Z,2.82
2018-02-18T17:35:12.787Z,2.74
2018-02-18T17:37:40.355Z,2.62
2018-02-18T17:40:07.911Z,2.64
2018-02-18T17:42:35.610Z,2.39
2018-02-18T17:45:03.179Z,2.39
2018-02-18T17:47:30.912Z,2.18
2018-02-18T17:49:58.543Z,2.19
2018-02-18T17:52:26.321Z,2.00
2018-02-18T17:54:53.878Z,2.02
2018-02-18T17:57:21.876Z,1.92
2018-02-18T17:59:49.477Z,2.10
2018-02-18T18:02:18.224Z,1.98
2018-02-18T18:04:45.782Z,2.07
2018-02-18T18:07:13.752Z,2.03
2018-02-18T18:09:41.488Z,1.95
2018-02-18T18:12:09.059Z,1.92
2018-02-18T18:14:36.691Z,1.82
2018-02-18T18:17:04.815Z,1.81
2018-02-18T18:19:32.571Z,1.81
2018-02-18T18:22:00.188Z,1.80
2018-02-18T18:24:27.752Z,1.71
2018-02-18T18:26:55.302Z,1.56
2018-02-18T18:29:22.906Z,1.42
2018-02-18T18:31:50.460Z,1.38
2018-02-18T18:34:18.036Z,1.35
2018-02-18T18:36:45.593Z,1.35
2018-02-18T18:39:13.209Z,1.34
2018-02-18T18:41:40.743Z,1.41
2018-02-18T18:44:08.296Z,1.23
2018-02-18T18:46:38.708Z,0.98
2018-02-18T18:49:06.368Z,1.05
2018-02-18T18:51:33.899Z,1.22
2018-02-18T18:54:01.456Z,1.15
2018-02-18T18:56:29.035Z,1.03
2018-02-18T18:59:01.669Z,0.98
2018-02-18T19:01:29.463Z,1.00
2018-02-18T19:03:57.284Z,0.95
2018-02-18T19:06:24.923Z,0.90
2018-02-18T19:08:54.221Z,0.85
2018-02-18T19:11:22.208Z,0.81
2018-02-18T19:13:52.447Z,0.77
2018-02-18T19:16:22.277Z,0.72
2018-02-18T19:18:52.300Z,0.82
2018-02-18T19:21:22.239Z,0.71
2018-02-18T19:23:51.220Z,0.68
2018-02-18T19:26:19.010Z,0.66
2018-02-18T19:28:46.584Z,0.74
2018-02-18T19:31:14.132Z,0.69
2018-02-18T19:33:41.719Z,0.57
2018-02-18T19:36:09.248Z,0.57
2018-02-18T19:38:37.319Z,0.72
2018-02-18T19:41:04.890Z,0.73
2018-02-18T19:43:32.595Z,0.68
2018-02-18T19:46:00.147Z,0.63
2018-02-18T19:48:27.683Z,0.64
2018-02-18T19:50:55.404Z,0.53
2018-02-18T19:53:23.203Z,0.58
2018-02-18T19:55:51.591Z,0.59
2018-02-18T19:58:19.351Z,0.53
2018-02-18T20:00:46.936Z,0.64
2018-02-18T20:03:14.515Z,0.49
2018-02-18T20:05:42.440Z,0.59
2018-02-18T20:08:10.198Z,0.56
2018-02-18T20:10:37.805Z,0.56
2018-02-18T20:13:07.050Z,0.59
2018-02-18T20:15:36.670Z,0.53
2018-02-18T20:18:04.474Z,0.54
2018-02-18T20:20:31.998Z,0.49
2018-02-18T20:22:59.942Z,0.65
2018-02-18T20:25:31.757Z,0.74
2018-02-18T20:28:18.346Z,0.76
2018-02-18T20:30:46.376Z,0.79
2018-02-18T20:33:16.274Z,0.53
2018-02-18T20:35:43.859Z,0.50
2018-02-18T20:38:13.868Z,0.54
2018-02-18T20:40:42.444Z,0.43
2018-02-18T20:43:11.227Z,0.38
2018-02-18T20:45:41.508Z,0.63
2018-02-18T20:48:13.295Z,0.63
2018-02-18T20:50:43.549Z,0.49
2018-02-18T20:53:11.982Z,0.46
2018-02-18T20:55:39.590Z,0.46
2018-02-18T20:58:07.112Z,0.47
2018-02-18T21:00:34.649Z,0.30
2018-02-18T21:03:02.225Z,0.00
2018-02-18T21:05:29.769Z,0.31
2018-02-18T21:07:59.600Z,0.18
2018-02-18T21:10:27.158Z,0.33
2018-02-18T21:12:55.976Z,0.39
2018-02-18T21:15:23.905Z,0.16
2018-02-18T21:17:51.487Z,0.21
2018-02-18T21:20:19.006Z,0.29
2018-02-18T21:22:46.544Z,0.24
2018-02-18T21:25:14.118Z,0.01
2018-02-18T21:27:41.640Z,0.04
2018-02-18T21:30:09.236Z,0.14
2018-02-18T21:32:36.774Z,0.23
2018-02-18T21:35:04.367Z,0.16
2018-02-18T21:37:31.903Z,0.06
2018-02-18T21:39:59.595Z,0.06
2018-02-18T21:42:27.155Z,0.09
2018-02-18T21:44:54.699Z,0.04
2018-02-18T21:47:22.435Z,-0.01
2018-02-18T21:49:50.011Z,-0.21
2018-02-18T21:52:17.544Z,-0.07
2018-02-18T21:54:45.095Z,-0.09
2018-02-18T21:57:12.651Z,0.04
2018-02-18T21:59:40.748Z,-0.40
2018-02-18T22:02:09.402Z,-0.18
2018-02-18T22:04:39.214Z,-0.29
2018-02-18T22:07:06.973Z,-0.56
2018-02-18T22:09:36.241Z,-0.37
2018-02-18T22:12:04.265Z,-0.51
2018-02-18T22:14:33.623Z,-0.30
2018-02-18T22:17:02.804Z,-0.44
2018-02-18T22:19:32.366Z,-0.34
2018-02-18T22:22:01.307Z,-0.38
2018-02-18T22:24:29.982Z,-0.65
2018-02-18T22:26:58.176Z,-0.74
2018-02-18T22:29:26.751Z,-0.39
2018-02-18T22:31:55.021Z,-0.59
2018-02-18T22:34:24.119Z,-0.37
2018-02-18T22:36:52.203Z,-0.28
2018-02-18T22:39:20.248Z,-0.27
2018-02-18T22:41:49.611Z,-0.31
2018-02-18T22:44:18.656Z,-0.32
2018-02-18T22:46:47.318Z,-0.73
2018-02-18T22:49:16.191Z,-0.45
2018-02-18T22:51:45.387Z,-0.49
2018-02-18T22:54:13.571Z,-0.48
2018-02-18T22:56:41.692Z,-0.42
2018-02-18T22:59:09.951Z,-0.81
2018-02-18T23:01:41.207Z,-0.73
2018-02-18T23:04:11.233Z,-0.94
2018-02-18T23:06:38.795Z,-0.62
2018-02-18T23:09:06.973Z,-0.67
2018-02-18T23:11:34.935Z,-0.60
2018-02-18T23:14:04.663Z,-0.70
2018-02-18T23:16:32.786Z,-0.55
2018-02-18T23:19:03.093Z,-0.66
2018-02-18T23:21:31.408Z,-0.53
2018-02-18T23:24:01.215Z,-0.52
2018-02-18T23:26:29.050Z,-0.47
2018-02-18T23:28:57.440Z,-0.47
2018-02-18T23:31:27.276Z,-0.36
2018-02-18T23:33:56.724Z,-0.26
2018-02-18T23:36:26.494Z,-0.28
2018-02-18T23:38:54.767Z,-0.24
2018-02-18T23:41:22.292Z,-0.17
2018-02-18T23:43:50.662Z,-0.12
2018-02-18T23:46:18.295Z,-0.32
2018-02-18T23:48:49.251Z,-0.08
2018-02-18T23:51:16.900Z,-0.09
2018-02-18T23:53:45.066Z,-0.16
2018-02-18T23:56:12.627Z,0.07
2018-02-18T23:58:40.160Z,0.12
